Atmore, AL (36502)

10:29 AM CDT on July 25, 2016 (GMT -0500)
Nokomis | | Change Station

Elev 269 ft 31.03 °N, 87.59 °W | Updated 12 seconds ago

Scattered Clouds
Scattered Clouds
86.4 °F
Feels Like 95 °F
N
0.0
Wind Variable Wind from SE
Gusts 0.0 mph

Today
High -- | Low -- °F
--% Chance of Precip.
Yesterday
High -- | Low -- °F
Precip. -- in
Pressure 29.99 in
Visibility 10.0 miles
Clouds Few 2500 ft
Scattered Clouds 4000 ft
Heat Index 95 °F
Dew Point 74 °F
Humidity 67%
Rainfall 0.00 in
Snow Depth Not available.
6:03 AM 7:49 PM
Waning Gibbous, 65% visible
METAR KNSE 251456Z 11009KT 10SM FEW025 SCT040 30/25 A3003 RMK AO2 SLP154 T03000250 50006 $
Pressure 29.99 in
Visibility 10.0 miles
Clouds Few 2500 ft
Scattered Clouds 4000 ft
Heat Index 95 °F
Dew Point 74 °F
Humidity 67%
Rainfall 0.00 in
Snow Depth Not available.
6:03 AM 7:49 PM
Waning Gibbous, 65% visible
METAR KNSE 251456Z 11009KT 10SM FEW025 SCT040 30/25 A3003 RMK AO2 SLP154 T03000250 50006 $

10-Day Weather Forecast

Almanac

Astronomy

Jul. 25, 2016 Rise Set
Actual Time
Civil Twilight
Nautical Twilight
Astronomical Twilight
Moon
Length of Visible Light
Length of Day
Tomorrow will be .
, % of the Moon is Illuminated

Today's Extremes

State Highs State Lows

Community

WunderPhotos

Upload Photos

1,927,318 photos uploaded!

WunderBlog® & News

Nearby

Air Quality

  Air Quality AQ Index Pollutant
Not available.

Snow Depth

Station Depth Elevation

Earthquake Activity

City Distance Mag. Time & Date
Minimum magnitude displayed is 2.5.

Coastal Water Temperatures

Place Temperature

Stations

Nearby Weather Stations

Station Location Temp. Windchill Dew Point Humidity Wind Precip. Elev Updated Type
                   

Watches & Warnings

There are currently no watches in effect.